createdAt,value
2023-05-14T00:02:19.182Z,42.02
2023-05-14T00:04:48.188Z,41.20
2023-05-14T00:07:19.812Z,41.01
2023-05-14T00:09:51.654Z,41.04
2023-05-14T00:12:20.658Z,41.11
2023-05-14T00:14:49.864Z,41.00
2023-05-14T00:17:18.986Z,41.02
2023-05-14T00:19:54.905Z,41.01
2023-05-14T00:22:23.893Z,40.69
2023-05-14T00:24:52.792Z,40.57
2023-05-14T00:27:23.904Z,40.68
2023-05-14T00:29:52.942Z,40.31
2023-05-14T00:32:22.083Z,40.11
2023-05-14T00:34:51.047Z,39.74
2023-05-14T00:37:20.096Z,39.66
2023-05-14T00:39:49.245Z,39.42
2023-05-14T00:42:18.226Z,39.54
2023-05-14T00:44:47.229Z,39.46
2023-05-14T00:47:19.450Z,39.52
2023-05-14T00:49:48.556Z,39.11
2023-05-14T00:52:17.493Z,39.42
2023-05-14T00:54:49.616Z,39.35
2023-05-14T00:57:21.473Z,39.50
2023-05-14T00:59:50.425Z,39.11
2023-05-14T01:02:19.387Z,38.99
2023-05-14T01:04:48.472Z,39.04
2023-05-14T01:07:52.641Z,38.35
2023-05-14T01:10:29.201Z,37.78
2023-05-14T01:13:16.452Z,37.79
2023-05-14T01:15:45.524Z,37.56
2023-05-14T01:18:15.759Z,37.17
2023-05-14T01:20:46.243Z,36.87
2023-05-14T01:23:15.347Z,36.73
2023-05-14T01:25:47.020Z,36.56
2023-05-14T01:28:22.972Z,36.33
2023-05-14T01:30:52.165Z,36.09
2023-05-14T01:33:21.185Z,35.59
2023-05-14T01:35:50.578Z,35.81
2023-05-14T01:38:20.226Z,35.68
2023-05-14T01:40:49.721Z,35.19
2023-05-14T01:43:18.983Z,35.18
2023-05-14T01:45:48.263Z,35.32
2023-05-14T01:48:20.174Z,35.16
2023-05-14T01:50:49.181Z,35.49
2023-05-14T01:53:21.204Z,35.52
2023-05-14T01:55:52.363Z,34.75
2023-05-14T01:58:21.552Z,33.77
2023-05-14T02:00:50.538Z,33.58
2023-05-14T02:03:19.537Z,33.45
2023-05-14T02:05:48.485Z,33.19
2023-05-14T02:08:23.917Z,32.97
2023-05-14T02:10:52.979Z,33.32
2023-05-14T02:13:22.047Z,33.37
2023-05-14T02:15:51.683Z,33.29
2023-05-14T02:18:20.713Z,33.29
2023-05-14T02:20:49.741Z,33.27
2023-05-14T02:23:19.487Z,33.30
2023-05-14T02:25:49.560Z,33.07
2023-05-14T02:28:18.578Z,33.17
2023-05-14T02:30:50.641Z,33.00
2023-05-14T02:33:19.759Z,32.55
2023-05-14T02:35:51.281Z,32.47
2023-05-14T02:38:22.950Z,31.80
2023-05-14T02:41:00.933Z,31.71
2023-05-14T02:43:29.898Z,31.54
2023-05-14T02:45:58.928Z,31.29
2023-05-14T02:48:28.095Z,31.88
2023-05-14T02:50:57.183Z,31.74
2023-05-14T02:53:26.125Z,31.66
2023-05-14T02:55:55.209Z,32.10
2023-05-14T02:58:27.708Z,32.26
2023-05-14T03:00:57.668Z,32.44
2023-05-14T03:03:27.592Z,31.69
2023-05-14T03:05:57.526Z,31.43
2023-05-14T03:08:29.497Z,31.46
2023-05-14T03:10:58.560Z,31.56
2023-05-14T03:13:27.616Z,31.41
2023-05-14T03:15:56.762Z,31.25
2023-05-14T03:18:25.907Z,31.14
2023-05-14T03:20:57.674Z,31.23
2023-05-14T03:23:26.708Z,31.50
2023-05-14T03:25:55.778Z,31.60
2023-05-14T03:28:24.704Z,31.08
2023-05-14T03:30:53.988Z,31.29
2023-05-14T03:33:23.402Z,30.97
2023-05-14T03:36:01.147Z,30.81
2023-05-14T03:38:30.099Z,31.23
2023-05-14T03:40:59.631Z,31.08
2023-05-14T03:43:31.156Z,30.68
2023-05-14T03:46:00.450Z,31.10
2023-05-14T03:48:29.624Z,31.07
2023-05-14T03:50:58.657Z,31.32
2023-05-14T03:53:27.728Z,31.52
2023-05-14T03:55:56.949Z,31.37
2023-05-14T03:58:25.972Z,31.54
2023-05-14T04:00:57.749Z,31.24
2023-05-14T04:03:30.435Z,31.55
2023-05-14T04:06:02.372Z,31.37
2023-05-14T04:08:33.388Z,30.97
2023-05-14T04:11:02.402Z,30.77
2023-05-14T04:13:33.076Z,30.58
2023-05-14T04:16:06.842Z,31.02
2023-05-14T04:18:38.995Z,31.24
2023-05-14T04:21:10.953Z,31.38
2023-05-14T04:23:40.204Z,31.39
2023-05-14T04:26:12.112Z,31.20
2023-05-14T04:28:41.136Z,31.76
2023-05-14T04:31:10.193Z,31.15
2023-05-14T04:33:42.115Z,30.94
2023-05-14T04:36:18.802Z,31.12
2023-05-14T04:38:48.016Z,31.19
2023-05-14T04:41:17.194Z,31.33
2023-05-14T04:43:46.270Z,31.39
2023-05-14T04:46:15.539Z,30.83
2023-05-14T04:48:44.685Z,30.45
2023-05-14T04:51:22.385Z,30.24
2023-05-14T04:53:56.925Z,29.78
2023-05-14T04:56:26.185Z,30.07
2023-05-14T04:58:55.207Z,30.39
2023-05-14T05:01:28.110Z,30.54
2023-05-14T05:04:03.100Z,30.37
2023-05-14T05:06:33.349Z,30.21
2023-05-14T05:09:03.790Z,30.29
2023-05-14T05:11:32.776Z,30.52
2023-05-14T05:14:01.737Z,30.17
2023-05-14T05:16:30.861Z,30.64
2023-05-14T05:18:59.935Z,30.54
2023-05-14T05:21:28.976Z,30.77
2023-05-14T05:23:58.032Z,30.82
2023-05-14T05:26:30.206Z,30.78
2023-05-14T05:28:59.206Z,30.69
2023-05-14T05:31:28.257Z,30.86
2023-05-14T05:33:57.562Z,30.61
2023-05-14T05:36:27.066Z,30.71
2023-05-14T05:39:01.467Z,30.43
2023-05-14T05:41:31.665Z,30.56
2023-05-14T05:44:00.851Z,30.12
2023-05-14T05:46:34.215Z,30.02
2023-05-14T05:49:05.995Z,29.80
2023-05-14T05:51:37.585Z,29.86
2023-05-14T05:54:07.772Z,29.96
2023-05-14T05:56:36.812Z,29.70
2023-05-14T05:59:10.726Z,29.63
2023-05-14T06:01:39.819Z,29.57
2023-05-14T06:04:09.026Z,29.64
2023-05-14T06:06:38.112Z,29.62
2023-05-14T06:09:11.430Z,29.33
2023-05-14T06:11:40.409Z,29.41
2023-05-14T06:14:09.411Z,29.63
2023-05-14T06:16:38.535Z,30.07
2023-05-14T06:19:08.164Z,29.79
2023-05-14T06:21:37.282Z,29.83
2023-05-14T06:24:06.614Z,29.50
2023-05-14T06:26:37.823Z,29.73
2023-05-14T06:29:06.804Z,29.68
2023-05-14T06:31:35.833Z,29.77
2023-05-14T06:34:05.212Z,29.53
2023-05-14T06:36:37.321Z,29.74
2023-05-14T06:39:06.814Z,30.12
2023-05-14T06:41:35.896Z,30.30
2023-05-14T06:44:05.224Z,30.49
2023-05-14T06:46:37.271Z,29.92
2023-05-14T06:49:09.334Z,30.32
2023-05-14T06:51:38.364Z,30.66
2023-05-14T06:54:07.350Z,30.01
2023-05-14T06:56:36.578Z,30.08
2023-05-14T06:59:05.592Z,30.33
2023-05-14T07:01:34.696Z,30.39
2023-05-14T07:04:07.252Z,30.40
2023-05-14T07:06:36.365Z,30.42
2023-05-14T07:09:08.230Z,30.12
2023-05-14T07:11:37.370Z,29.96
2023-05-14T07:14:06.325Z,30.41
2023-05-14T07:16:35.429Z,30.49
2023-05-14T07:19:06.501Z,30.39
2023-05-14T07:21:35.757Z,30.33
2023-05-14T07:24:06.159Z,30.45
2023-05-14T07:26:35.204Z,30.22
2023-05-14T07:29:04.317Z,30.07
2023-05-14T07:31:35.974Z,29.66
2023-05-14T07:34:05.565Z,28.86
2023-05-14T07:36:34.656Z,28.88
2023-05-14T07:39:06.765Z,28.61
2023-05-14T07:41:38.370Z,28.67
2023-05-14T07:44:07.423Z,28.58
2023-05-14T07:46:39.182Z,27.92
2023-05-14T07:49:08.154Z,27.75
2023-05-14T07:51:38.076Z,27.85
2023-05-14T07:54:07.224Z,27.62
2023-05-14T07:56:36.278Z,27.99
2023-05-14T07:59:05.487Z,28.18
2023-05-14T08:01:34.599Z,28.31
2023-05-14T08:04:03.960Z,28.43
2023-05-14T08:06:35.598Z,28.40
2023-05-14T08:09:06.913Z,28.53
2023-05-14T08:11:36.079Z,28.36
2023-05-14T08:14:05.274Z,28.40
2023-05-14T08:16:34.389Z,28.39
2023-05-14T08:19:03.441Z,28.50
2023-05-14T08:21:35.872Z,28.67
2023-05-14T08:24:16.210Z,28.92
2023-05-14T08:26:45.526Z,28.82
2023-05-14T08:29:16.265Z,28.90
2023-05-14T08:31:50.940Z,28.92
2023-05-14T08:34:22.395Z,28.77
2023-05-14T08:36:54.170Z,28.99
2023-05-14T08:39:26.344Z,29.29
2023-05-14T08:42:00.527Z,29.27
2023-05-14T08:44:34.287Z,29.36
2023-05-14T08:47:03.275Z,28.92
2023-05-14T08:49:44.808Z,29.00
2023-05-14T08:52:14.124Z,28.90
2023-05-14T08:54:43.158Z,28.94
2023-05-14T08:57:12.436Z,29.02
2023-05-14T08:59:41.432Z,29.37
2023-05-14T09:02:15.252Z,29.42
2023-05-14T09:04:44.327Z,29.65
2023-05-14T09:07:13.504Z,29.64
2023-05-14T09:09:42.967Z,29.70
2023-05-14T09:12:12.074Z,29.73
2023-05-14T09:14:41.128Z,29.92
2023-05-14T09:17:10.124Z,29.72
2023-05-14T09:19:40.665Z,29.87
2023-05-14T09:22:18.125Z,30.07
2023-05-14T09:24:47.733Z,30.14
2023-05-14T09:27:25.010Z,30.20
2023-05-14T09:29:55.237Z,30.15
2023-05-14T09:32:24.629Z,30.24
2023-05-14T09:34:54.540Z,30.35
2023-05-14T09:37:26.506Z,30.31
2023-05-14T09:39:58.322Z,30.32
2023-05-14T09:42:27.829Z,30.63
2023-05-14T09:44:56.900Z,30.70
2023-05-14T09:47:26.178Z,30.72
2023-05-14T09:49:55.842Z,30.68
2023-05-14T09:52:28.266Z,30.77
2023-05-14T09:54:57.323Z,30.78
2023-05-14T09:57:29.775Z,30.99
2023-05-14T09:59:58.729Z,31.05
2023-05-14T10:02:28.611Z,31.07
2023-05-14T10:05:00.376Z,31.15
2023-05-14T10:07:33.704Z,31.25
2023-05-14T10:10:04.471Z,31.37
2023-05-14T10:12:35.947Z,31.29
2023-05-14T10:15:22.974Z,31.38
2023-05-14T10:17:54.546Z,31.35
2023-05-14T10:20:23.868Z,31.24
2023-05-14T10:22:55.207Z,31.70
2023-05-14T10:25:27.033Z,31.68
2023-05-14T10:27:56.113Z,31.56
2023-05-14T10:30:25.931Z,31.86
2023-05-14T10:33:11.246Z,31.81
2023-05-14T10:35:58.729Z,31.97
2023-05-14T10:38:31.564Z,32.15
2023-05-14T10:41:05.248Z,32.47
2023-05-14T10:43:37.990Z,32.41
2023-05-14T10:46:18.850Z,32.84
2023-05-14T10:48:47.865Z,33.14
2023-05-14T10:51:18.986Z,33.24
2023-05-14T10:53:47.960Z,33.25
2023-05-14T10:56:16.997Z,33.30
2023-05-14T10:58:48.963Z,33.24
2023-05-14T11:01:18.061Z,33.18
2023-05-14T11:03:47.848Z,33.24
2023-05-14T11:06:17.443Z,33.27
2023-05-14T11:08:47.891Z,33.30
2023-05-14T11:11:17.016Z,33.46
2023-05-14T11:13:52.036Z,33.35
2023-05-14T11:16:30.770Z,33.35
2023-05-14T11:19:04.915Z,33.57
2023-05-14T11:21:36.938Z,33.81
2023-05-14T11:24:09.866Z,33.93
2023-05-14T11:26:39.102Z,34.21
2023-05-14T11:29:14.206Z,34.25
2023-05-14T11:31:45.602Z,34.29
2023-05-14T11:34:17.223Z,34.32
2023-05-14T11:36:49.670Z,34.46
2023-05-14T11:39:24.507Z,34.77
2023-05-14T11:41:56.504Z,34.68
2023-05-14T11:44:28.289Z,34.86
2023-05-14T11:46:58.665Z,35.04
2023-05-14T11:49:27.822Z,34.76
2023-05-14T11:52:10.503Z,34.73
2023-05-14T11:54:39.561Z,34.72
2023-05-14T11:57:15.684Z,34.89
2023-05-14T11:59:44.712Z,34.82
2023-05-14T12:02:17.707Z,34.94
2023-05-14T12:04:57.496Z,35.16
2023-05-14T12:07:26.491Z,35.33
2023-05-14T12:09:56.247Z,35.64
2023-05-14T12:12:30.786Z,35.64
2023-05-14T12:15:01.944Z,35.47
2023-05-14T12:17:35.712Z,35.50
2023-05-14T12:20:05.659Z,35.44
2023-05-14T12:22:36.844Z,35.59
2023-05-14T12:25:06.425Z,35.48
2023-05-14T12:27:38.880Z,35.52
2023-05-14T12:32:43.337Z,35.69
2023-05-14T12:35:12.513Z,35.80
2023-05-14T12:37:41.577Z,36.05
2023-05-14T12:40:13.654Z,36.03
2023-05-14T12:42:42.890Z,36.22
2023-05-14T12:45:15.266Z,36.49
2023-05-14T12:47:44.290Z,36.67
2023-05-14T12:50:13.897Z,36.58
2023-05-14T12:52:43.226Z,36.78
2023-05-14T12:55:12.566Z,36.55
2023-05-14T12:57:47.165Z,36.49
2023-05-14T13:00:17.163Z,36.55
2023-05-14T13:02:49.029Z,36.57
2023-05-14T13:05:20.949Z,36.67
2023-05-14T13:07:56.415Z,36.64
2023-05-14T13:10:25.452Z,36.97
2023-05-14T13:12:54.554Z,37.41
2023-05-14T13:15:23.975Z,37.38
2023-05-14T13:17:55.183Z,37.64
2023-05-14T13:20:31.499Z,37.36
2023-05-14T13:23:09.455Z,37.33
2023-05-14T13:25:38.590Z,37.55
2023-05-14T13:28:07.563Z,37.86
2023-05-14T13:30:36.725Z,37.83
2023-05-14T13:33:06.383Z,38.00
2023-05-14T13:35:36.159Z,38.15
2023-05-14T13:38:05.180Z,38.15
2023-05-14T13:40:34.302Z,38.24
2023-05-14T13:43:03.430Z,38.30
2023-05-14T13:45:32.466Z,38.35
2023-05-14T13:48:01.744Z,38.54
2023-05-14T13:50:30.888Z,38.63
2023-05-14T13:52:59.881Z,38.55
2023-05-14T13:55:28.866Z,38.73
2023-05-14T13:57:57.924Z,39.05
2023-05-14T14:00:28.712Z,39.03
2023-05-14T14:02:57.741Z,39.21
2023-05-14T14:05:29.989Z,39.27
2023-05-14T14:08:01.055Z,39.23
2023-05-14T14:10:43.994Z,39.02
2023-05-14T14:13:13.031Z,39.23
2023-05-14T14:15:44.928Z,38.98
2023-05-14T14:18:17.156Z,38.80
2023-05-14T14:20:46.223Z,38.88
2023-05-14T14:23:15.284Z,38.65
2023-05-14T14:25:44.319Z,38.81
2023-05-14T14:28:16.674Z,38.95
2023-05-14T14:30:45.817Z,39.04
2023-05-14T14:33:14.975Z,39.41
2023-05-14T14:35:46.038Z,39.23
2023-05-14T14:38:17.789Z,39.33
2023-05-14T14:40:47.684Z,39.40
2023-05-14T14:43:16.613Z,39.53
2023-05-14T14:45:49.497Z,39.54
2023-05-14T14:48:27.810Z,39.40
2023-05-14T14:50:57.394Z,39.79
2023-05-14T14:53:26.677Z,39.61
2023-05-14T14:55:57.877Z,40.01
2023-05-14T14:58:27.568Z,40.08
2023-05-14T15:00:57.332Z,39.90
2023-05-14T15:03:27.047Z,39.97
2023-05-14T15:05:56.175Z,39.93
2023-05-14T15:08:27.368Z,39.95
2023-05-14T15:10:59.380Z,39.91
2023-05-14T15:13:28.623Z,39.76
2023-05-14T15:15:57.594Z,39.85
2023-05-14T15:18:27.297Z,39.78
2023-05-14T15:20:56.314Z,40.00
2023-05-14T15:23:28.128Z,40.27
2023-05-14T15:25:57.333Z,40.38
2023-05-14T15:28:26.324Z,40.69
2023-05-14T15:30:55.814Z,40.70
2023-05-14T15:33:28.024Z,40.57
2023-05-14T15:35:57.001Z,40.86
2023-05-14T15:38:26.027Z,40.71
2023-05-14T15:40:55.270Z,40.73
2023-05-14T15:43:24.516Z,40.89
2023-05-14T15:45:53.595Z,40.98
2023-05-14T15:48:25.436Z,40.98
2023-05-14T15:50:54.927Z,40.84
2023-05-14T15:53:24.018Z,41.39
2023-05-14T15:55:56.377Z,41.84
2023-05-14T15:58:34.336Z,41.64
2023-05-14T16:01:04.654Z,41.97
2023-05-14T16:03:36.839Z,42.13
2023-05-14T16:06:06.019Z,41.93
2023-05-14T16:08:38.148Z,41.73
2023-05-14T16:11:07.834Z,41.82
2023-05-14T16:13:39.210Z,41.92
2023-05-14T16:16:08.301Z,42.31
2023-05-14T16:18:37.347Z,42.29
2023-05-14T16:21:06.394Z,42.18
2023-05-14T16:23:35.476Z,42.11
2023-05-14T16:26:04.610Z,41.86
2023-05-14T16:28:33.729Z,41.90
2023-05-14T16:31:03.684Z,41.92
2023-05-14T16:33:33.019Z,41.82
2023-05-14T16:36:04.100Z,41.93
2023-05-14T16:38:33.164Z,41.67
2023-05-14T16:41:02.230Z,41.71
2023-05-14T16:43:33.851Z,42.16
2023-05-14T16:46:02.894Z,42.06
2023-05-14T16:48:32.202Z,42.17
2023-05-14T16:51:11.300Z,42.21
2023-05-14T16:53:40.330Z,42.26
2023-05-14T16:56:09.426Z,42.67
2023-05-14T16:58:38.458Z,42.60
2023-05-14T17:01:12.631Z,42.85
2023-05-14T17:03:42.017Z,42.88
2023-05-14T17:06:11.766Z,42.93
2023-05-14T17:08:46.619Z,42.97
2023-05-14T17:11:15.665Z,43.09
2023-05-14T17:13:44.670Z,43.09
2023-05-14T17:16:13.850Z,43.33
2023-05-14T17:18:42.882Z,43.20
2023-05-14T17:21:11.876Z,43.28
2023-05-14T17:23:40.964Z,43.31
2023-05-14T17:26:10.214Z,43.39
2023-05-14T17:28:39.720Z,43.54
2023-05-14T17:31:08.732Z,43.46
2023-05-14T17:33:37.848Z,43.29
2023-05-14T17:36:07.049Z,43.50
2023-05-14T17:38:36.301Z,43.49
2023-05-14T17:41:08.184Z,43.63
2023-05-14T17:43:37.295Z,43.58
2023-05-14T17:46:06.754Z,43.77
2023-05-14T17:48:35.798Z,43.87
2023-05-14T17:51:04.820Z,43.78
2023-05-14T17:53:42.512Z,43.61
2023-05-14T17:56:14.288Z,43.66
2023-05-14T17:58:46.094Z,43.66
2023-05-14T18:01:15.051Z,43.61
2023-05-14T18:03:44.375Z,43.78
2023-05-14T18:06:15.449Z,43.38
2023-05-14T18:08:44.461Z,43.57
2023-05-14T18:11:16.207Z,43.38
2023-05-14T18:13:45.186Z,43.57
2023-05-14T18:16:16.938Z,43.46
2023-05-14T18:18:46.010Z,43.40
2023-05-14T18:21:15.174Z,43.58
2023-05-14T18:23:44.219Z,43.65
2023-05-14T18:26:13.351Z,43.63
2023-05-14T18:28:42.347Z,43.92
2023-05-14T18:31:14.335Z,43.95
2023-05-14T18:33:43.313Z,44.03
2023-05-14T18:36:12.493Z,44.20
2023-05-14T18:38:42.416Z,44.21
2023-05-14T18:41:11.462Z,44.08
2023-05-14T18:43:40.612Z,44.42
2023-05-14T18:46:09.844Z,44.14
2023-05-14T18:48:44.838Z,44.37
2023-05-14T18:51:17.123Z,44.29
2023-05-14T18:53:46.162Z,44.40
2023-05-14T18:56:15.217Z,44.22
2023-05-14T18:58:44.153Z,44.21
2023-05-14T19:01:13.246Z,44.43
2023-05-14T19:03:43.537Z,44.45
2023-05-14T19:06:12.591Z,44.32
2023-05-14T19:08:44.660Z,44.43
2023-05-14T19:11:13.704Z,44.85
2023-05-14T19:13:42.757Z,44.78
2023-05-14T19:16:12.744Z,44.80
2023-05-14T19:18:41.844Z,44.80
2023-05-14T19:21:13.573Z,44.69
2023-05-14T19:23:45.467Z,44.87
2023-05-14T19:26:14.478Z,45.07
2023-05-14T19:28:43.459Z,44.92
2023-05-14T19:31:12.869Z,45.11
2023-05-14T19:33:44.695Z,44.92
2023-05-14T19:36:13.797Z,45.10
2023-05-14T19:38:42.756Z,45.05
2023-05-14T19:41:12.061Z,45.04
2023-05-14T19:43:43.835Z,45.17
2023-05-14T19:46:13.366Z,45.03
2023-05-14T19:48:45.458Z,45.14
2023-05-14T19:51:17.289Z,45.29
2023-05-14T19:53:46.813Z,45.17
2023-05-14T19:56:16.025Z,45.53
2023-05-14T19:58:45.811Z,45.82
2023-05-14T20:01:14.905Z,45.66
2023-05-14T20:03:44.002Z,45.73
2023-05-14T20:06:18.087Z,46.21
2023-05-14T20:08:47.202Z,46.26
2023-05-14T20:11:17.258Z,46.11
2023-05-14T20:13:46.570Z,46.08
2023-05-14T20:16:18.395Z,46.28
2023-05-14T20:18:47.832Z,46.49
2023-05-14T20:21:16.925Z,46.42
2023-05-14T20:23:45.894Z,46.41
2023-05-14T20:26:15.105Z,46.24
2023-05-14T20:28:45.035Z,46.46
2023-05-14T20:31:14.139Z,46.44
2023-05-14T20:33:43.236Z,46.56
2023-05-14T20:36:12.260Z,47.36
2023-05-14T20:38:43.157Z,47.37
2023-05-14T20:41:12.166Z,47.86
2023-05-14T20:43:43.314Z,48.00
2023-05-14T20:46:12.370Z,47.42
2023-05-14T20:48:50.379Z,47.82
2023-05-14T20:51:28.623Z,47.12
2023-05-14T20:54:05.278Z,47.10
2023-05-14T20:56:48.411Z,46.58
2023-05-14T20:59:20.264Z,45.82
2023-05-14T21:01:49.360Z,46.00
2023-05-14T21:04:21.758Z,46.04
2023-05-14T21:06:56.973Z,46.58
2023-05-14T21:09:26.062Z,46.98
2023-05-14T21:12:06.798Z,46.61
2023-05-14T21:14:36.147Z,46.24
2023-05-14T21:17:07.163Z,46.34
2023-05-14T21:19:42.508Z,46.41
2023-05-14T21:22:11.548Z,46.10
2023-05-14T21:24:43.639Z,45.64
2023-05-14T21:27:15.706Z,45.18
2023-05-14T21:29:47.972Z,45.14
2023-05-14T21:32:17.087Z,45.21
2023-05-14T21:34:59.516Z,45.29
2023-05-14T21:37:31.612Z,45.49
2023-05-14T21:40:00.797Z,45.88
2023-05-14T21:42:38.677Z,45.95
2023-05-14T21:45:13.104Z,45.68
2023-05-14T21:47:45.018Z,45.03
2023-05-14T21:50:18.523Z,44.47
2023-05-14T21:52:50.814Z,44.20
2023-05-14T21:55:28.141Z,43.52
2023-05-14T21:58:00.180Z,43.29
2023-05-14T22:00:29.681Z,43.72
2023-05-14T22:02:58.779Z,44.07
2023-05-14T22:05:28.227Z,43.60
2023-05-14T22:07:57.369Z,43.61
2023-05-14T22:10:29.458Z,43.25
2023-05-14T22:13:00.470Z,42.34
2023-05-14T22:15:29.557Z,41.70
2023-05-14T22:18:10.305Z,40.87
2023-05-14T22:20:39.557Z,40.44
2023-05-14T22:23:08.851Z,39.95
2023-05-14T22:25:37.871Z,39.43
2023-05-14T22:28:07.014Z,39.47
2023-05-14T22:30:41.461Z,39.43
2023-05-14T22:33:18.881Z,39.35
2023-05-14T22:35:50.832Z,39.22
2023-05-14T22:38:28.598Z,39.18
2023-05-14T22:41:00.994Z,38.88
2023-05-14T22:43:30.176Z,39.22
2023-05-14T22:45:59.212Z,38.78
2023-05-14T22:48:39.827Z,38.79
2023-05-14T22:54:14.567Z,38.72
2023-05-14T22:56:46.360Z,38.79
2023-05-14T22:59:16.300Z,38.77
2023-05-14T23:01:56.576Z,38.50
2023-05-14T23:04:34.716Z,38.28
2023-05-14T23:07:10.351Z,38.54
2023-05-14T23:09:42.056Z,38.55
2023-05-14T23:12:31.180Z,38.38
2023-05-14T23:15:19.732Z,38.28
2023-05-14T23:17:50.926Z,38.19
2023-05-14T23:20:20.001Z,38.50
2023-05-14T23:22:52.212Z,38.75
2023-05-14T23:25:21.339Z,38.65
2023-05-14T23:27:51.576Z,38.25
2023-05-14T23:30:26.440Z,38.07
2023-05-14T23:32:55.904Z,38.20
2023-05-14T23:35:31.293Z,37.91
2023-05-14T23:38:06.679Z,37.82
2023-05-14T23:40:36.004Z,37.64
2023-05-14T23:43:05.461Z,37.62
2023-05-14T23:45:37.476Z,37.51
2023-05-14T23:48:09.518Z,37.82
2023-05-14T23:50:42.039Z,37.71
2023-05-14T23:53:11.502Z,37.55
2023-05-14T23:55:43.536Z,37.61
2023-05-14T23:58:15.498Z,37.86
